Time;durP1;ratioP1;P1;durP2;ratioP2;P2;SDS_P1;SDS_P2;PMS_P1;PMS_P2;Temp;Humidity;BMP_temperature;BMP_pressure;BME280_temperature;BME280_humidity;BME280_pressure;Samples;Min_cycle;Max_cycle;Signal;HPM_P1;HPM_P2
2022/04/07 00:01:29;;;;;;;2.83;1.52;;;10.50;99.90;;;;;;4423566;32;20101;-72
2022/04/07 00:03:55;;;;;;;0.40;0.40;;;10.40;99.90;;;;;;4423340;32;20070;-72
2022/04/07 00:06:21;;;;;;;0.30;0.30;;;10.50;99.90;;;;;;4421167;32;20093;-72
2022/04/07 00:08:46;;;;;;;0.57;0.57;;;10.50;99.90;;;;;;4424966;32;20568;-72
2022/04/07 00:11:12;;;;;;;0.40;0.40;;;10.50;99.90;;;;;;4421776;32;20101;-72
2022/04/07 00:13:38;;;;;;;0.50;0.50;;;10.50;99.90;;;;;;4421562;32;20093;-72
2022/04/07 00:16:03;;;;;;;5.30;1.20;;;10.50;99.90;;;;;;4420800;32;20082;-72
2022/04/07 00:18:29;;;;;;;0.40;0.40;;;10.50;99.90;;;;;;4423251;32;20128;-72
2022/04/07 00:20:55;;;;;;;0.82;0.80;;;10.50;99.90;;;;;;4422539;32;20791;-72
2022/04/07 00:23:21;;;;;;;0.40;0.40;;;10.40;99.90;;;;;;4421103;32;20622;-72
2022/04/07 00:25:48;;;;;;;1.75;0.82;;;10.40;99.90;;;;;;4420840;32;20128;-72
2022/04/07 00:28:14;;;;;;;0.40;0.40;;;10.40;99.90;;;;;;4423417;32;20074;-72
2022/04/07 00:30:39;;;;;;;0.30;0.30;;;10.40;99.90;;;;;;4421698;32;20093;-73
2022/04/07 00:33:07;;;;;;;0.25;0.25;;;10.40;99.90;;;;;;4417001;32;20102;-71
2022/04/07 00:35:33;;;;;;;1.30;1.12;;;10.40;99.90;;;;;;4421377;32;20233;-72
2022/04/07 00:37:59;;;;;;;0.40;0.40;;;10.30;99.90;;;;;;4423802;32;20136;-71
2022/04/07 00:40:25;;;;;;;0.40;0.40;;;10.30;99.90;;;;;;4422374;32;20101;-72
2022/04/07 00:42:52;;;;;;;0.32;0.32;;;10.30;99.90;;;;;;4422479;32;20062;-71
2022/04/07 00:45:19;;;;;;;0.30;0.30;;;10.30;99.90;;;;;;4420865;32;20533;-72
2022/04/07 00:47:46;;;;;;;1.15;0.82;;;10.30;99.90;;;;;;4422432;32;20144;-71
2022/04/07 00:50:13;;;;;;;0.50;0.50;;;10.30;99.90;;;;;;4420093;32;20139;-72
2022/04/07 00:52:43;;;;;;;0.20;0.20;;;10.20;99.90;;;;;;4421152;32;20073;-71
2022/04/07 00:55:10;;;;;;;3.62;1.67;;;10.20;99.90;;;;;;4419164;32;20124;-72
2022/04/07 00:57:37;;;;;;;0.30;0.30;;;10.10;99.90;;;;;;4421293;32;20065;-73
2022/04/07 01:00:05;;;;;;;0.37;0.37;;;10.10;99.90;;;;;;4422706;32;20073;-72
2022/04/07 01:02:30;;;;;;;0.28;0.28;;;10.10;99.90;;;;;;4421910;32;20192;-72
2022/04/07 01:04:57;;;;;;;0.35;0.35;;;10.10;99.90;;;;;;4421742;32;20085;-72
2022/04/07 01:07:24;;;;;;;0.60;0.60;;;10.10;99.90;;;;;;4423817;32;20078;-72
2022/04/07 01:09:50;;;;;;;3.92;1.50;;;10.20;99.90;;;;;;4419182;32;20065;-72
2022/04/07 01:12:15;;;;;;;0.30;0.30;;;10.20;99.90;;;;;;4417324;32;20088;-72
2022/04/07 01:14:59;;;;;;;0.28;0.28;;;10.10;99.90;;;;;;4419834;32;20121;-72
2022/04/07 01:17:26;;;;;;;0.40;0.40;;;10.10;99.90;;;;;;4424715;32;20124;-72
2022/04/07 01:19:51;;;;;;;0.30;0.30;;;10.10;99.90;;;;;;4420178;32;20496;-72
2022/04/07 01:22:18;;;;;;;0.30;0.30;;;10.10;99.90;;;;;;4423669;32;20077;-71
2022/04/07 01:24:43;;;;;;;0.40;0.40;;;10.10;99.90;;;;;;4418516;32;20107;-72
2022/04/07 01:27:10;;;;;;;1.58;0.85;;;10.00;99.90;;;;;;4421895;32;20132;-72
2022/04/07 01:29:37;;;;;;;0.40;0.40;;;10.00;99.90;;;;;;4421538;32;20184;-72
2022/04/07 01:32:17;;;;;;;0.60;0.60;;;10.00;99.90;;;;;;4420990;32;20077;-71
2022/04/07 01:34:44;;;;;;;0.55;0.55;;;10.00;99.90;;;;;;4418757;32;20282;-73
2022/04/07 01:37:10;;;;;;;0.40;0.40;;;10.00;99.90;;;;;;4419739;32;20065;-72
2022/04/07 01:39:38;;;;;;;0.68;0.60;;;10.00;99.90;;;;;;4421856;32;20081;-72
2022/04/07 01:42:05;;;;;;;4.43;0.80;;;10.00;99.90;;;;;;4420128;32;20140;-73
2022/04/07 01:44:36;;;;;;;0.32;0.32;;;10.00;99.90;;;;;;4419211;32;20068;-72
2022/04/07 01:47:02;;;;;;;27.58;3.80;;;10.00;99.90;;;;;;4421556;32;20074;-72
2022/04/07 01:49:30;;;;;;;0.45;0.45;;;9.90;99.90;;;;;;4421641;32;20089;-72
2022/04/07 01:51:57;;;;;;;1.95;1.45;;;9.90;99.90;;;;;;4422307;32;20721;-73
2022/04/07 01:54:23;;;;;;;0.40;0.40;;;9.90;99.90;;;;;;4422872;32;20093;-73
2022/04/07 01:56:49;;;;;;;0.47;0.47;;;9.90;99.90;;;;;;4421050;32;20081;-73
2022/04/07 01:59:15;;;;;;;0.30;0.30;;;9.90;99.90;;;;;;4420569;32;20097;-72
2022/04/07 02:01:41;;;;;;;0.82;0.55;;;9.90;99.90;;;;;;4420678;32;20142;-72
2022/04/07 02:04:06;;;;;;;0.35;0.35;;;9.80;99.90;;;;;;4421085;32;20089;-73
2022/04/07 02:06:32;;;;;;;0.30;0.30;;;9.80;99.90;;;;;;4421812;32;20062;-72
2022/04/07 02:08:57;;;;;;;0.40;0.40;;;9.80;99.90;;;;;;4421762;32;20073;-72
2022/04/07 02:11:23;;;;;;;1.85;0.82;;;9.90;99.90;;;;;;4421835;32;20520;-72
2022/04/07 02:13:49;;;;;;;0.40;0.40;;;9.80;99.90;;;;;;4419699;32;20122;-72
2022/04/07 02:16:15;;;;;;;0.77;0.50;;;9.80;99.90;;;;;;4420749;32;20069;-72
2022/04/07 02:18:41;;;;;;;0.30;0.30;;;9.80;99.90;;;;;;4421602;32;20073;-72
2022/04/07 02:21:07;;;;;;;0.30;0.30;;;9.80;99.90;;;;;;4421787;32;20259;-71
2022/04/07 02:23:40;;;;;;;0.40;0.40;;;9.70;99.90;;;;;;4422874;32;20800;-71
2022/04/07 02:26:10;;;;;;;0.35;0.35;;;9.70;99.90;;;;;;4422828;32;20101;-71
2022/04/07 02:28:35;;;;;;;0.40;0.40;;;9.80;99.90;;;;;;4420149;32;20089;-71
2022/04/07 02:31:01;;;;;;;0.47;0.47;;;9.70;99.90;;;;;;4418912;32;20062;-71
2022/04/07 02:33:26;;;;;;;0.52;0.52;;;9.80;99.90;;;;;;4421109;32;20069;-71
2022/04/07 02:35:51;;;;;;;0.62;0.62;;;9.80;99.90;;;;;;4421876;32;20426;-72
2022/04/07 02:38:17;;;;;;;0.52;0.52;;;9.80;99.90;;;;;;4420230;32;20072;-71
2022/04/07 02:40:42;;;;;;;0.40;0.40;;;9.70;99.90;;;;;;4420214;32;20093;-72
2022/04/07 02:43:08;;;;;;;1.27;0.70;;;9.70;99.90;;;;;;4419919;32;20085;-71
2022/04/07 02:45:33;;;;;;;0.40;0.40;;;9.70;99.90;;;;;;4419760;32;20068;-71
2022/04/07 02:47:59;;;;;;;3.85;1.87;;;9.60;99.90;;;;;;4421855;32;20126;-72
2022/04/07 02:50:24;;;;;;;0.30;0.30;;;9.60;99.90;;;;;;4421071;32;20512;-71
2022/04/07 02:52:50;;;;;;;0.40;0.40;;;9.60;99.90;;;;;;4418577;32;20061;-71
2022/04/07 02:55:15;;;;;;;0.68;0.68;;;9.60;99.90;;;;;;4419073;32;20129;-71
2022/04/07 02:57:41;;;;;;;0.40;0.40;;;9.60;99.90;;;;;;4419592;32;20085;-71
2022/04/07 03:00:07;;;;;;;0.32;0.32;;;9.60;99.90;;;;;;4417443;32;20069;-71
2022/04/07 03:02:33;;;;;;;10.30;2.33;;;9.60;99.90;;;;;;4418702;32;20805;-71
2022/04/07 03:04:58;;;;;;;0.40;0.40;;;9.60;99.90;;;;;;4421115;32;20077;-71
2022/04/07 03:07:24;;;;;;;0.50;0.50;;;9.60;99.90;;;;;;4420451;32;20097;-71
2022/04/07 03:09:50;;;;;;;0.70;0.70;;;9.60;99.90;;;;;;4419603;32;20081;-71
2022/04/07 03:12:15;;;;;;;0.60;0.60;;;9.60;99.90;;;;;;4418737;32;20117;-71
2022/04/07 03:14:41;;;;;;;1.92;0.60;;;9.60;99.90;;;;;;4419043;32;20092;-71
2022/04/07 03:17:07;;;;;;;0.40;0.40;;;9.60;99.90;;;;;;4420004;32;20089;-71
2022/04/07 03:19:33;;;;;;;0.43;0.43;;;9.60;99.90;;;;;;4424108;32;20121;-72
2022/04/07 03:21:58;;;;;;;0.80;0.57;;;9.60;99.90;;;;;;4422489;32;20120;-72
2022/04/07 03:24:24;;;;;;;0.30;0.30;;;9.60;99.90;;;;;;4421794;32;20085;-71
2022/04/07 03:26:50;;;;;;;0.47;0.47;;;9.60;99.90;;;;;;4422377;32;20563;-72
2022/04/07 03:29:16;;;;;;;0.40;0.40;;;9.50;99.90;;;;;;4419930;32;20397;-71
2022/04/07 03:31:42;;;;;;;0.68;0.68;;;9.50;99.90;;;;;;4423623;32;20143;-72
2022/04/07 03:34:07;;;;;;;0.50;0.50;;;9.50;99.90;;;;;;4423712;32;20077;-71
2022/04/07 03:36:33;;;;;;;1.50;0.90;;;9.50;99.90;;;;;;4424200;32;21090;-71
2022/04/07 03:38:58;;;;;;;0.50;0.50;;;9.50;99.90;;;;;;4421311;32;20161;-72
2022/04/07 03:41:24;;;;;;;0.40;0.40;;;9.50;99.90;;;;;;4422347;32;20085;-71
2022/04/07 03:43:49;;;;;;;0.37;0.37;;;9.50;99.90;;;;;;4419130;32;20531;-72
2022/04/07 03:46:16;;;;;;;0.30;0.30;;;9.50;99.90;;;;;;4423491;32;20128;-71
2022/04/07 03:48:42;;;;;;;3.72;0.50;;;9.40;99.90;;;;;;4423816;32;20078;-72
2022/04/07 03:51:07;;;;;;;0.62;0.62;;;9.40;99.90;;;;;;4423094;32;20072;-72
2022/04/07 03:53:33;;;;;;;0.50;0.50;;;9.50;99.90;;;;;;4423876;32;20061;-71
2022/04/07 03:55:58;;;;;;;0.60;0.60;;;9.50;99.90;;;;;;4422425;32;20536;-72
2022/04/07 03:58:25;;;;;;;0.30;0.30;;;9.50;99.90;;;;;;4420332;32;20057;-71
2022/04/07 04:00:50;;;;;;;0.40;0.40;;;9.60;99.90;;;;;;4424225;32;20429;-73
2022/04/07 04:03:15;;;;;;;0.45;0.45;;;9.60;99.90;;;;;;4421395;32;20073;-71
2022/04/07 04:05:41;;;;;;;0.40;0.40;;;9.60;99.90;;;;;;4423996;32;20077;-71
2022/04/07 04:08:08;;;;;;;4.37;1.70;;;9.60;99.90;;;;;;4423949;32;20143;-72
2022/04/07 04:10:33;;;;;;;0.30;0.30;;;9.60;99.90;;;;;;4420252;32;20469;-71
2022/04/07 04:12:59;;;;;;;0.47;0.47;;;9.60;99.90;;;;;;4421318;32;20123;-71
2022/04/07 04:15:24;;;;;;;0.65;0.65;;;9.70;99.90;;;;;;4422360;32;20136;-72
2022/04/07 04:17:50;;;;;;;0.50;0.50;;;9.70;99.90;;;;;;4422735;32;20497;-72
2022/04/07 04:20:15;;;;;;;0.40;0.40;;;9.70;99.90;;;;;;4424203;32;20132;-72
2022/04/07 04:22:41;;;;;;;0.30;0.30;;;9.70;99.90;;;;;;4406883;32;20515;-71
2022/04/07 04:25:08;;;;;;;1.65;0.60;;;9.70;99.90;;;;;;4391266;32;20062;-72
2022/04/07 04:27:34;;;;;;;0.40;0.40;;;9.80;99.90;;;;;;4385758;32;20517;-72
2022/04/07 04:30:00;;;;;;;1.27;0.82;;;9.80;99.90;;;;;;4401136;32;20094;-71
2022/04/07 04:32:25;;;;;;;0.70;0.70;;;9.70;99.90;;;;;;4421627;32;20496;-71
2022/04/07 04:34:51;;;;;;;1.35;0.70;;;9.70;99.90;;;;;;4421023;32;20120;-71
2022/04/07 04:37:16;;;;;;;0.70;0.50;;;9.70;99.90;;;;;;4424394;32;20420;-70
2022/04/07 04:39:42;;;;;;;0.30;0.30;;;9.80;99.90;;;;;;4421042;32;20105;-72
2022/04/07 04:42:07;;;;;;;0.30;0.30;;;9.80;99.90;;;;;;4420701;32;20077;-72
2022/04/07 04:44:33;;;;;;;0.40;0.40;;;9.90;99.90;;;;;;4420741;32;20094;-72
2022/04/07 04:46:58;;;;;;;0.30;0.30;;;9.80;99.90;;;;;;4423197;32;20093;-71
2022/04/07 04:49:24;;;;;;;0.30;0.30;;;9.80;99.90;;;;;;4420740;32;20203;-71
2022/04/07 04:51:49;;;;;;;0.30;0.30;;;9.80;99.90;;;;;;4412758;32;20488;-71
2022/04/07 04:54:15;;;;;;;0.50;0.50;;;9.80;99.90;;;;;;4403375;32;20078;-71
2022/04/07 04:56:41;;;;;;;2.05;0.40;;;9.80;99.90;;;;;;4423647;32;20098;-71
2022/04/07 04:59:07;;;;;;;0.50;0.50;;;9.80;99.90;;;;;;4418252;32;20077;-71
2022/04/07 05:01:33;;;;;;;0.50;0.50;;;9.80;99.90;;;;;;4412521;32;21204;-72
2022/04/07 05:03:58;;;;;;;0.30;0.30;;;9.80;99.90;;;;;;4410945;32;20453;-71
2022/04/07 05:06:24;;;;;;;0.30;0.30;;;9.80;99.90;;;;;;4396050;32;20074;-71
2022/04/07 05:08:49;;;;;;;25.67;0.70;;;9.80;99.90;;;;;;4392410;32;20480;-71
2022/04/07 05:11:15;;;;;;;0.40;0.40;;;9.70;99.90;;;;;;4395123;32;20124;-71
2022/04/07 05:13:40;;;;;;;0.43;0.43;;;9.70;99.90;;;;;;4407280;32;20070;-71
2022/04/07 05:16:07;;;;;;;0.30;0.30;;;9.70;99.90;;;;;;4409958;32;20078;-71
2022/04/07 05:18:33;;;;;;;1.20;0.43;;;9.80;99.90;;;;;;4335437;32;20172;-71
2022/04/07 05:20:59;;;;;;;6.07;1.62;;;9.70;99.90;;;;;;4353197;32;20057;-72
2022/04/07 05:23:25;;;;;;;0.50;0.50;;;9.70;99.90;;;;;;4351855;32;20252;-72
2022/04/07 05:25:50;;;;;;;0.30;0.30;;;9.80;99.90;;;;;;4398873;32;20077;-71
2022/04/07 05:28:16;;;;;;;0.43;0.43;;;9.90;99.90;;;;;;4403127;32;20824;-72
2022/04/07 05:30:41;;;;;;;0.37;0.37;;;9.80;99.90;;;;;;4357942;32;20528;-71
2022/04/07 05:33:07;;;;;;;0.30;0.30;;;9.90;99.90;;;;;;4353390;32;20206;-71
2022/04/07 05:35:34;;;;;;;0.40;0.40;;;9.90;99.90;;;;;;4355862;32;20561;-72
2022/04/07 05:38:02;;;;;;;0.32;0.32;;;9.90;99.90;;;;;;4392761;32;20081;-72
2022/04/07 05:40:29;;;;;;;1.02;0.37;;;9.90;99.90;;;;;;4401416;32;20090;-71
2022/04/07 05:42:56;;;;;;;0.40;0.40;;;9.90;99.90;;;;;;4403820;32;20787;-72
2022/04/07 05:45:22;;;;;;;0.32;0.32;;;9.90;99.90;;;;;;4408470;32;20091;-71
2022/04/07 05:47:48;;;;;;;0.45;0.45;;;9.90;99.90;;;;;;4396655;32;20508;-71
2022/04/07 05:50:13;;;;;;;0.40;0.40;;;9.90;99.90;;;;;;4407653;32;20080;-71
2022/04/07 05:52:39;;;;;;;0.30;0.30;;;10.00;99.90;;;;;;4403783;32;20614;-71
2022/04/07 05:55:05;;;;;;;0.40;0.40;;;10.00;99.90;;;;;;4411661;32;20098;-71
2022/04/07 05:57:30;;;;;;;2.37;0.60;;;10.10;99.90;;;;;;4418923;32;20176;-71
2022/04/07 06:00:06;;;;;;;0.60;0.60;;;10.10;99.90;;;;;;4397659;32;20093;-72
2022/04/07 06:02:32;;;;;;;1.20;0.88;;;10.20;99.90;;;;;;4399596;32;20364;-72
2022/04/07 06:04:58;;;;;;;0.50;0.50;;;10.20;99.90;;;;;;4397051;32;20159;-72
2022/04/07 06:07:24;;;;;;;13.50;0.60;;;10.30;99.90;;;;;;4410129;32;20474;-71
2022/04/07 06:09:49;;;;;;;11.60;1.85;;;10.40;99.90;;;;;;4411827;32;20461;-71
2022/04/07 06:12:14;;;;;;;0.40;0.40;;;10.40;99.90;;;;;;4409878;32;20863;-71
2022/04/07 06:14:40;;;;;;;0.50;0.50;;;10.50;99.90;;;;;;4414029;32;20512;-72
2022/04/07 06:17:05;;;;;;;0.55;0.50;;;10.60;99.90;;;;;;4409469;32;21592;-71
2022/04/07 06:19:31;;;;;;;0.30;0.30;;;10.60;99.90;;;;;;4392995;32;20203;-72
2022/04/07 06:21:56;;;;;;;0.30;0.30;;;10.70;99.90;;;;;;4413255;32;20080;-71
2022/04/07 06:24:22;;;;;;;0.40;0.40;;;10.80;99.90;;;;;;4410336;32;20077;-71
2022/04/07 06:26:49;;;;;;;0.47;0.47;;;10.80;99.90;;;;;;4413656;32;20150;-73
2022/04/07 06:29:15;;;;;;;0.32;0.32;;;10.90;99.90;;;;;;4411146;32;20078;-71
2022/04/07 06:31:40;;;;;;;0.30;0.30;;;10.90;99.90;;;;;;4392961;32;20140;-71
2022/04/07 06:34:05;;;;;;;4.03;1.23;;;11.00;99.90;;;;;;4395961;32;20085;-71
2022/04/07 06:36:31;;;;;;;0.30;0.30;;;11.00;99.90;;;;;;4409722;32;20588;-72
2022/04/07 06:38:56;;;;;;;0.45;0.45;;;11.00;99.90;;;;;;4409506;32;20077;-72
2022/04/07 06:41:22;;;;;;;0.40;0.40;;;11.00;99.90;;;;;;4412725;32;20148;-72
2022/04/07 06:43:48;;;;;;;0.43;0.43;;;11.00;99.90;;;;;;4409431;32;20077;-72
2022/04/07 06:46:14;;;;;;;0.40;0.40;;;11.10;99.90;;;;;;4407169;32;20413;-73
2022/04/07 06:48:39;;;;;;;0.40;0.40;;;11.20;99.90;;;;;;4391343;32;20077;-72
2022/04/07 06:51:05;;;;;;;1.65;0.73;;;11.20;99.90;;;;;;4414792;32;20098;-72
2022/04/07 06:53:30;;;;;;;0.30;0.30;;;11.30;99.90;;;;;;4409987;32;20139;-72
2022/04/07 06:55:56;;;;;;;2.92;1.02;;;11.30;99.90;;;;;;4415914;32;20061;-72
2022/04/07 06:58:21;;;;;;;0.30;0.30;;;11.30;99.90;;;;;;4408697;32;20597;-73
2022/04/07 07:00:47;;;;;;;0.50;0.50;;;11.40;99.90;;;;;;4389007;32;20077;-72
2022/04/07 07:03:14;;;;;;;0.80;0.70;;;11.30;99.90;;;;;;4389481;32;20279;-73
2022/04/07 07:05:40;;;;;;;0.40;0.40;;;11.40;99.90;;;;;;4397741;32;20090;-71
2022/04/07 07:08:15;;;;;;;0.73;0.70;;;11.50;99.90;;;;;;4402105;32;20096;-72
2022/04/07 07:10:41;;;;;;;0.40;0.40;;;11.50;99.90;;;;;;4396388;32;20248;-73
2022/04/07 07:13:08;;;;;;;0.40;0.40;;;11.50;99.90;;;;;;4403522;32;20093;-72
2022/04/07 07:15:34;;;;;;;0.37;0.37;;;11.60;99.90;;;;;;4397113;32;20644;-74
2022/04/07 07:18:00;;;;;;;0.57;0.57;;;11.60;99.90;;;;;;4381271;32;20169;-73
2022/04/07 07:20:25;;;;;;;0.35;0.35;;;11.60;99.90;;;;;;4403377;32;20137;-74
2022/04/07 07:22:50;;;;;;;0.30;0.30;;;11.70;99.90;;;;;;4404049;32;20101;-73
2022/04/07 07:25:16;;;;;;;0.40;0.40;;;11.80;99.90;;;;;;4399614;32;20571;-72
2022/04/07 07:27:44;;;;;;;1.27;1.17;;;12.00;99.90;;;;;;4406379;32;20081;-73
2022/04/07 07:30:11;;;;;;;0.40;0.40;;;12.10;99.90;;;;;;4391994;32;20227;-73
2022/04/07 07:32:37;;;;;;;0.40;0.40;;;12.20;99.90;;;;;;4389110;32;20097;-74
2022/04/07 07:35:04;;;;;;;0.47;0.47;;;12.30;99.90;;;;;;4395096;32;92513;-73
2022/04/07 07:37:29;;;;;;;0.30;0.30;;;12.30;99.90;;;;;;4403111;32;20100;-73
2022/04/07 07:39:55;;;;;;;0.45;0.45;;;12.40;99.90;;;;;;4397825;32;20472;-73
2022/04/07 07:42:21;;;;;;;0.50;0.50;;;12.50;99.90;;;;;;4401600;32;20117;-73
2022/04/07 07:44:47;;;;;;;0.60;0.60;;;12.60;99.90;;;;;;4400338;32;21238;-75
2022/04/07 07:47:12;;;;;;;0.30;0.30;;;12.50;99.90;;;;;;4401885;32;20108;-73
2022/04/07 07:49:38;;;;;;;0.35;0.35;;;12.50;99.90;;;;;;4387947;32;20081;-73
2022/04/07 07:52:03;;;;;;;0.40;0.40;;;12.70;99.90;;;;;;4410506;32;20603;-71
2022/04/07 07:54:29;;;;;;;0.50;0.50;;;12.80;99.90;;;;;;4407830;32;20651;-71
2022/04/07 07:56:54;;;;;;;1.02;0.88;;;13.00;99.90;;;;;;4406528;32;20576;-72
2022/04/07 07:59:20;;;;;;;0.40;0.40;;;13.00;99.90;;;;;;4401603;32;20817;-73
2022/04/07 08:01:48;;;;;;;0.62;0.62;;;12.80;99.90;;;;;;4388273;32;20081;-73
2022/04/07 08:04:14;;;;;;;16.87;0.68;;;12.80;99.90;;;;;;4395069;32;20086;-73
2022/04/07 08:06:40;;;;;;;0.30;0.30;;;12.90;99.90;;;;;;4402997;32;20069;-72
2022/04/07 08:09:05;;;;;;;0.40;0.40;;;13.00;99.90;;;;;;4412814;32;20085;-74
2022/04/07 08:11:31;;;;;;;0.30;0.30;;;13.00;99.90;;;;;;4408490;32;20446;-73
2022/04/07 08:13:57;;;;;;;0.28;0.28;;;13.10;99.90;;;;;;4410609;32;20104;-73
2022/04/07 08:16:23;;;;;;;0.32;0.32;;;13.30;99.90;;;;;;4410477;32;20192;-73
2022/04/07 08:18:48;;;;;;;0.40;0.40;;;13.10;99.90;;;;;;4392728;32;20089;-73
2022/04/07 08:21:14;;;;;;;0.45;0.45;;;13.10;99.90;;;;;;4414270;32;20085;-73
2022/04/07 08:23:39;;;;;;;0.35;0.35;;;13.20;99.90;;;;;;4408264;32;20627;-72
2022/04/07 08:26:05;;;;;;;0.30;0.30;;;13.30;99.90;;;;;;4409187;32;20844;-70
2022/04/07 08:28:30;;;;;;;0.30;0.30;;;13.20;99.90;;;;;;4401551;32;20110;-69
2022/04/07 08:30:56;;;;;;;1.10;0.37;;;13.20;99.90;;;;;;4393679;32;20561;-70
2022/04/07 08:33:21;;;;;;;0.50;0.50;;;13.20;99.90;;;;;;4391421;32;20379;-74
2022/04/07 08:35:48;;;;;;;0.37;0.37;;;13.20;99.90;;;;;;4400115;32;20485;-70
2022/04/07 08:38:15;;;;;;;0.30;0.30;;;13.40;99.90;;;;;;4396690;32;20465;-70
2022/04/07 08:40:42;;;;;;;0.30;0.30;;;13.40;99.90;;;;;;4396254;32;20616;-73
2022/04/07 08:43:09;;;;;;;0.70;0.70;;;13.60;99.90;;;;;;4401972;32;20226;-71
2022/04/07 08:45:36;;;;;;;0.45;0.45;;;13.50;99.90;;;;;;4409612;32;20583;-72
2022/04/07 08:48:02;;;;;;;0.35;0.35;;;13.50;99.90;;;;;;4391725;32;20266;-70
2022/04/07 08:50:32;;;;;;;0.30;0.30;;;13.50;99.90;;;;;;4411850;32;20093;-71
2022/04/07 08:52:58;;;;;;;0.50;0.50;;;13.60;99.90;;;;;;4413912;32;20151;-71
2022/04/07 08:55:23;;;;;;;0.40;0.40;;;13.60;99.90;;;;;;4411995;32;20089;-70
2022/04/07 08:57:49;;;;;;;0.40;0.40;;;13.50;99.90;;;;;;4407862;32;20536;-72
2022/04/07 09:00:16;;;;;;;0.30;0.30;;;13.40;99.90;;;;;;4394328;32;20423;-71
2022/04/07 09:02:43;;;;;;;0.30;0.30;;;13.40;99.90;;;;;;4391634;32;21082;-71
2022/04/07 09:05:10;;;;;;;2.03;0.90;;;13.40;99.90;;;;;;4399999;32;20093;-70
2022/04/07 09:07:36;;;;;;;0.40;0.40;;;13.50;99.90;;;;;;4408437;32;20086;-70
2022/04/07 09:10:03;;;;;;;0.37;0.37;;;13.40;99.90;;;;;;4403531;32;20080;-70
2022/04/07 09:12:29;;;;;;;0.32;0.32;;;13.40;99.90;;;;;;4407923;32;20112;-70
2022/04/07 09:14:57;;;;;;;0.30;0.30;;;13.40;99.90;;;;;;4409430;32;20524;-71
2022/04/07 09:17:23;;;;;;;0.30;0.30;;;13.50;99.90;;;;;;4403840;32;20209;-70
2022/04/07 09:19:50;;;;;;;0.30;0.30;;;13.60;99.90;;;;;;4397126;32;20711;-71
2022/04/07 09:22:15;;;;;;;0.37;0.37;;;13.70;99.90;;;;;;4410507;32;20101;-72
2022/04/07 09:24:42;;;;;;;0.30;0.30;;;13.90;99.90;;;;;;4406024;32;20140;-70
2022/04/07 09:27:10;;;;;;;0.30;0.30;;;13.90;99.90;;;;;;4406810;32;20109;-71
2022/04/07 09:29:41;;;;;;;0.37;0.37;;;14.00;99.90;;;;;;4395019;32;20215;-70
2022/04/07 09:32:27;;;;;;;1.35;0.40;;;14.00;99.90;;;;;;4386007;32;20374;-71
2022/04/07 09:34:56;;;;;;;0.22;0.22;;;14.40;99.90;;;;;;4392435;32;21194;-71
2022/04/07 09:37:23;;;;;;;0.30;0.30;;;14.50;99.90;;;;;;4405582;32;20291;-71
2022/04/07 09:39:50;;;;;;;0.40;0.40;;;14.40;99.90;;;;;;4403297;32;20090;-70
2022/04/07 09:42:20;;;;;;;0.30;0.30;;;14.20;99.90;;;;;;4401574;32;20085;-70
2022/04/07 09:44:51;;;;;;;0.32;0.32;;;14.10;99.90;;;;;;4398249;32;20163;-72
2022/04/07 09:47:17;;;;;;;0.37;0.37;;;14.20;99.90;;;;;;4400687;32;20476;-70
2022/04/07 09:49:42;;;;;;;0.40;0.40;;;14.20;99.90;;;;;;4392899;32;20622;-70
2022/04/07 09:52:10;;;;;;;0.30;0.30;;;14.10;99.90;;;;;;4406754;32;21516;-71
2022/04/07 09:54:37;;;;;;;0.40;0.40;;;14.00;99.90;;;;;;4409730;32;20472;-71
2022/04/07 09:57:04;;;;;;;0.40;0.40;;;13.90;99.90;;;;;;4410454;32;20081;-71
2022/04/07 09:59:30;;;;;;;0.43;0.43;;;13.80;99.90;;;;;;4394422;32;20420;-72
2022/04/07 10:01:57;;;;;;;0.37;0.37;;;13.80;99.90;;;;;;4391352;32;20117;-71
2022/04/07 10:04:23;;;;;;;0.30;0.30;;;13.70;99.90;;;;;;4403644;32;20093;-70
2022/04/07 10:06:50;;;;;;;0.40;0.40;;;13.70;99.90;;;;;;4410954;32;20116;-71
2022/04/07 10:09:17;;;;;;;2.42;1.10;;;13.70;99.90;;;;;;4409606;32;21944;-71
2022/04/07 10:11:43;;;;;;;0.30;0.30;;;13.80;99.90;;;;;;4407153;32;20111;-70
2022/04/07 10:14:10;;;;;;;1.75;1.10;;;14.20;99.90;;;;;;4413070;32;20148;-70
2022/04/07 10:16:36;;;;;;;0.30;0.30;;;14.50;99.90;;;;;;4404576;32;20093;-71
2022/04/07 10:19:09;;;;;;;0.40;0.40;;;14.70;99.90;;;;;;4389222;32;20081;-71
2022/04/07 10:21:48;;;;;;;0.60;0.55;;;14.40;99.90;;;;;;4406337;32;21188;-71
2022/04/07 10:24:35;;;;;;;0.52;0.40;;;14.30;99.90;;;;;;4410517;32;20069;-70
2022/04/07 10:27:04;;;;;;;0.28;0.28;;;14.20;99.90;;;;;;4408031;32;20084;-70
2022/04/07 10:29:29;;;;;;;0.30;0.30;;;14.00;99.90;;;;;;4395013;32;20832;-69
2022/04/07 10:32:14;;;;;;;0.20;0.20;;;14.00;99.90;;;;;;4392505;32;20449;-70
2022/04/07 10:34:52;;;;;;;0.50;0.50;;;14.00;99.90;;;;;;4403951;32;20635;-69
2022/04/07 10:37:29;;;;;;;0.28;0.28;;;14.00;99.90;;;;;;4407093;32;20199;-69
2022/04/07 10:39:55;;;;;;;0.30;0.30;;;13.90;99.90;;;;;;4408085;32;20290;-70
2022/04/07 10:43:00;;;;;;;0.30;0.30;;;13.90;99.90;;;;;;4403867;32;20115;-70
2022/04/07 10:45:34;;;;;;;0.30;0.30;;;13.90;99.90;;;;;;4398361;32;20513;-70
2022/04/07 10:48:20;;;;;;;0.40;0.40;;;13.90;99.90;;;;;;4392233;32;20618;-70
2022/04/07 10:50:49;;;;;;;19.17;0.50;;;13.90;99.90;;;;;;4409174;32;20915;-70
2022/04/07 10:53:21;;;;;;;0.40;0.40;;;13.70;99.90;;;;;;4404947;32;20058;-70
2022/04/07 10:56:08;;;;;;;0.45;0.45;;;13.70;99.90;;;;;;4407263;32;20073;-70
2022/04/07 10:58:55;;;;;;;0.30;0.30;;;13.50;99.90;;;;;;4403079;32;20390;-70
2022/04/07 11:01:41;;;;;;;0.30;0.30;;;13.40;99.90;;;;;;4393312;32;20094;-69
2022/04/07 11:04:25;;;;;;;0.32;0.32;;;13.20;99.90;;;;;;4394902;32;20707;-69
2022/04/07 11:07:09;;;;;;;0.30;0.30;;;13.20;99.90;;;;;;4402906;32;20121;-70
2022/04/07 11:09:46;;;;;;;0.45;0.45;;;13.20;99.90;;;;;;4408085;32;20718;-71
2022/04/07 11:12:17;;;;;;;0.35;0.35;;;13.20;99.90;;;;;;4408485;32;20081;-71
2022/04/07 11:14:46;;;;;;;0.40;0.40;;;13.20;99.90;;;;;;4410455;32;20675;-70
2022/04/07 11:17:20;;;;;;;0.20;0.20;;;13.20;99.90;;;;;;4401184;32;20466;-71
2022/04/07 11:20:03;;;;;;;0.30;0.30;;;13.30;99.90;;;;;;4399919;32;20357;-70
2022/04/07 11:22:57;;;;;;;0.30;0.30;;;13.30;99.90;;;;;;4413528;32;20112;-70
2022/04/07 11:25:34;;;;;;;0.40;0.40;;;13.30;99.90;;;;;;4408590;32;20077;-71
2022/04/07 11:28:18;;;;;;;0.32;0.32;;;13.40;99.90;;;;;;4414283;32;20193;-71
2022/04/07 11:30:49;;;;;;;0.50;0.50;;;13.50;99.90;;;;;;4399559;32;20097;-70
2022/04/07 11:33:27;;;;;;;0.30;0.30;;;13.50;99.90;;;;;;4398001;32;20077;-68
2022/04/07 11:36:03;;;;;;;0.40;0.40;;;13.60;99.90;;;;;;4410355;32;20120;-72
2022/04/07 11:38:34;;;;;;;0.40;0.40;;;13.60;99.90;;;;;;4413626;32;20101;-69
2022/04/07 11:41:06;;;;;;;0.40;0.40;;;13.60;99.90;;;;;;4411279;32;20097;-69
2022/04/07 11:43:33;;;;;;;0.30;0.30;;;13.60;99.90;;;;;;4412010;32;20053;-71
2022/04/07 11:45:59;;;;;;;0.37;0.37;;;13.70;99.90;;;;;;4412825;32;20388;-70
2022/04/07 11:48:33;;;;;;;0.30;0.30;;;13.70;99.90;;;;;;4390884;32;20571;-70
2022/04/07 11:51:00;;;;;;;0.37;0.37;;;13.60;99.90;;;;;;4417246;32;20069;-71
2022/04/07 11:53:29;;;;;;;0.40;0.40;;;13.60;99.90;;;;;;4412735;32;20073;-71
2022/04/07 11:55:59;;;;;;;0.40;0.40;;;13.50;99.90;;;;;;4408385;32;20068;-70
2022/04/07 11:58:28;;;;;;;0.40;0.40;;;13.40;99.90;;;;;;4403915;32;20188;-71
2022/04/07 12:00:54;;;;;;;0.37;0.37;;;13.30;99.90;;;;;;4386338;32;20078;-70
2022/04/07 12:03:20;;;;;;;0.30;0.30;;;13.30;99.90;;;;;;4397575;32;20088;-71
2022/04/07 12:05:47;;;;;;;0.30;0.30;;;13.30;99.90;;;;;;4408396;32;20169;-70
2022/04/07 12:08:14;;;;;;;0.37;0.37;;;13.20;99.90;;;;;;4416740;32;20073;-70
2022/04/07 12:10:43;;;;;;;0.28;0.28;;;13.10;99.90;;;;;;4411958;32;20533;-70
2022/04/07 12:13:09;;;;;;;0.20;0.20;;;13.10;99.90;;;;;;4412332;32;20057;-71
2022/04/07 12:15:36;;;;;;;0.30;0.30;;;13.00;99.90;;;;;;4410082;32;20081;-71
2022/04/07 12:18:06;;;;;;;0.40;0.40;;;13.00;99.90;;;;;;4390428;32;20931;-70
2022/04/07 12:20:33;;;;;;;0.32;0.32;;;13.00;99.90;;;;;;4414302;32;20101;-72
2022/04/07 12:23:14;;;;;;;0.30;0.30;;;12.80;99.90;;;;;;4415425;32;20120;-69
2022/04/07 12:25:42;;;;;;;0.30;0.30;;;12.80;99.90;;;;;;4414089;32;20389;-71
2022/04/07 12:28:11;;;;;;;0.73;0.73;;;12.70;99.90;;;;;;4411524;32;20244;-71
2022/04/07 12:30:53;;;;;;;0.30;0.30;;;12.70;99.90;;;;;;4397085;32;20102;-71
2022/04/07 12:33:42;;;;;;;0.30;0.30;;;12.60;99.90;;;;;;4395777;32;20101;-70
2022/04/07 12:36:13;;;;;;;0.30;0.30;;;12.60;99.90;;;;;;4409578;32;20110;-69
2022/04/07 12:38:40;;;;;;;;;;;12.70;99.90;;;;;;4416122;32;20215;-70
2022/04/07 12:41:11;;;;;;;0.20;0.20;;;12.60;99.90;;;;;;4416989;32;20000;-70
2022/04/07 12:43:47;;;;;;;0.30;0.30;;;12.60;99.90;;;;;;4417108;32;20058;-70
2022/04/07 12:46:13;;;;;;;0.30;0.30;;;12.60;99.90;;;;;;4415216;32;20062;-70
2022/04/07 12:49:00;;;;;;;0.90;0.60;;;12.50;99.90;;;;;;4397238;32;20065;-69
2022/04/07 12:51:26;;;;;;;0.40;0.40;;;12.50;99.90;;;;;;4414617;32;20065;-69
2022/04/07 12:54:05;;;;;;;0.40;0.40;;;12.50;99.90;;;;;;4412841;32;20089;-70